createdAt,value
2018-10-16T12:09:34.583Z,19.90
2018-10-16T12:10:35.581Z,21.10
2018-10-16T12:11:35.512Z,20.80
2018-10-16T12:12:35.506Z,21.80
2018-10-16T12:13:35.493Z,20.30
2018-10-16T12:14:35.509Z,21.00
2018-10-16T12:15:35.490Z,21.10
2018-10-16T12:16:35.523Z,20.70
2018-10-16T12:17:35.447Z,19.90
2018-10-16T12:18:35.450Z,20.70
2018-10-16T12:19:35.541Z,20.70
2018-10-16T12:20:35.454Z,20.90
2018-10-16T12:21:35.435Z,21.00
2018-10-16T12:22:35.385Z,19.50
2018-10-16T12:23:35.428Z,20.50
2018-10-16T12:24:35.397Z,20.00
2018-10-16T12:25:35.377Z,21.10
2018-10-16T12:26:35.354Z,20.20
2018-10-16T12:27:35.407Z,20.00
2018-10-16T12:28:35.322Z,20.30
2018-10-16T12:29:35.328Z,19.80
2018-10-16T12:30:35.316Z,18.50
2018-10-16T12:31:35.296Z,18.90
2018-10-16T12:32:35.328Z,19.40
2018-10-16T12:33:35.303Z,17.90
2018-10-16T12:34:35.325Z,19.00
2018-10-16T12:35:35.328Z,19.40
2018-10-16T12:36:35.245Z,18.50
2018-10-16T12:37:35.292Z,18.30
2018-10-16T12:38:35.288Z,19.40
2018-10-16T12:39:35.245Z,20.70
2018-10-16T12:40:35.222Z,19.20
2018-10-16T12:41:35.180Z,19.50
2018-10-16T12:42:35.202Z,19.00
2018-10-16T12:43:35.402Z,20.10
2018-10-16T12:44:35.164Z,20.30
2018-10-16T12:45:35.180Z,20.00
2018-10-16T12:46:35.145Z,20.50
2018-10-16T12:47:35.142Z,19.80
2018-10-16T12:48:35.121Z,20.00
2018-10-16T12:49:35.123Z,19.40
2018-10-16T12:50:35.139Z,20.70
2018-10-16T12:51:35.067Z,21.40
2018-10-16T12:52:35.072Z,20.90
2018-10-16T12:53:35.104Z,19.40
2018-10-16T12:54:35.068Z,18.90
2018-10-16T12:55:35.056Z,17.80
2018-10-16T12:56:35.069Z,17.80
2018-10-16T12:57:35.083Z,19.10
2018-10-16T12:58:35.074Z,19.40
2018-10-16T12:59:35.052Z,20.00
2018-10-16T13:00:35.104Z,18.00
2018-10-16T13:01:35.018Z,18.60
2018-10-16T13:02:34.992Z,19.00
2018-10-16T13:03:35.028Z,18.90
2018-10-16T13:04:34.977Z,18.40
2018-10-16T13:05:34.979Z,19.10
2018-10-16T13:06:34.933Z,18.90
2018-10-16T13:07:34.899Z,18.30
2018-10-16T13:08:34.904Z,18.80
2018-10-16T13:09:34.942Z,17.70
2018-10-16T13:10:35.032Z,18.80
2018-10-16T13:11:34.885Z,18.50
2018-10-16T13:12:34.865Z,17.80
2018-10-16T13:13:34.838Z,17.90
2018-10-16T13:14:34.868Z,17.80
2018-10-16T13:15:34.827Z,17.30
2018-10-16T13:16:34.808Z,17.20
2018-10-16T13:17:34.830Z,17.60
2018-10-16T13:18:34.816Z,17.30
2018-10-16T13:19:35.027Z,16.30
2018-10-16T13:20:35.450Z,15.70
2018-10-16T13:21:34.932Z,15.40
2018-10-16T13:22:34.815Z,15.80
2018-10-16T13:23:34.820Z,16.20
2018-10-16T13:24:34.739Z,15.60
2018-10-16T13:25:35.405Z,16.20
2018-10-16T13:26:34.717Z,15.90
2018-10-16T13:27:34.680Z,15.80
2018-10-16T13:28:34.689Z,16.10
2018-10-16T13:29:34.942Z,16.40
2018-10-16T13:30:34.736Z,17.50
2018-10-16T13:31:34.891Z,17.70
2018-10-16T13:32:34.725Z,17.40
2018-10-16T13:33:34.792Z,17.90
2018-10-16T13:34:34.712Z,16.80
2018-10-16T13:35:34.578Z,18.80
2018-10-16T13:36:34.770Z,18.50
2018-10-16T13:37:34.574Z,18.90
2018-10-16T13:38:34.553Z,19.00
2018-10-16T13:39:34.637Z,18.70
2018-10-16T13:40:34.540Z,17.80
2018-10-16T13:41:34.546Z,17.80
2018-10-16T13:42:34.725Z,18.70
2018-10-16T13:43:34.525Z,17.70
2018-10-16T13:44:34.486Z,17.70
2018-10-16T13:45:34.472Z,16.80
2018-10-16T13:46:34.523Z,17.90
2018-10-16T13:47:34.490Z,17.40
2018-10-16T13:48:34.441Z,17.40
2018-10-16T13:49:34.447Z,17.70
2018-10-16T13:50:34.428Z,16.80
2018-10-16T13:51:34.475Z,17.60
2018-10-16T13:52:34.411Z,16.40
2018-10-16T13:53:34.416Z,17.90
2018-10-16T13:54:34.375Z,17.20
2018-10-16T13:55:34.395Z,16.70
2018-10-16T13:56:34.381Z,16.80
2018-10-16T13:57:34.406Z,17.30
2018-10-16T13:58:34.346Z,16.00
2018-10-16T13:59:34.318Z,16.50
2018-10-16T14:00:34.472Z,16.60
2018-10-16T14:01:34.343Z,16.50
2018-10-16T14:02:34.307Z,15.30
2018-10-16T14:03:34.344Z,15.20
2018-10-16T14:04:34.385Z,15.90
2018-10-16T14:05:34.284Z,16.40
2018-10-16T14:06:34.285Z,15.60
2018-10-16T14:07:34.257Z,15.20
2018-10-16T14:08:34.255Z,14.40
2018-10-16T14:14:33.705Z,13.50
2018-10-16T14:15:35.607Z,14.30
2018-10-16T14:16:34.730Z,13.30
2018-10-16T14:17:34.686Z,14.00
2018-10-16T14:18:34.716Z,13.90
2018-10-16T14:19:34.696Z,15.00
2018-10-16T14:20:34.735Z,14.00
2018-10-16T14:21:34.720Z,12.90
2018-10-16T14:22:34.585Z,14.60
2018-10-16T14:23:34.729Z,14.50
2018-10-16T14:24:34.682Z,13.10
2018-10-16T14:25:34.552Z,14.00
2018-10-16T14:26:34.802Z,13.10
2018-10-16T14:27:34.574Z,14.20
2018-10-16T14:28:34.527Z,13.00
2018-10-16T14:29:34.538Z,13.30
2018-10-16T14:30:34.511Z,13.30
2018-10-16T14:31:34.490Z,12.90
2018-10-16T14:32:34.534Z,12.60
2018-10-16T14:33:34.539Z,12.90
2018-10-16T14:34:34.716Z,13.90
2018-10-16T14:35:34.459Z,14.30
2018-10-16T14:36:34.444Z,14.10
2018-10-16T14:37:34.420Z,14.70
2018-10-16T14:38:34.449Z,14.90
2018-10-16T14:39:34.431Z,14.10
2018-10-16T14:40:34.438Z,13.90
2018-10-16T14:41:34.394Z,13.50
2018-10-16T14:42:34.388Z,12.70
2018-10-16T14:43:34.370Z,13.30
2018-10-16T14:44:34.374Z,12.60
2018-10-16T14:45:34.330Z,13.20
2018-10-16T14:46:34.358Z,13.70
2018-10-16T14:47:34.325Z,14.00
2018-10-16T14:48:34.341Z,14.20
2018-10-16T14:49:34.315Z,14.00
2018-10-16T14:50:34.305Z,14.80
2018-10-16T14:51:34.282Z,14.70
2018-10-16T14:52:34.257Z,14.30
2018-10-16T14:53:34.274Z,13.40
2018-10-16T14:54:34.294Z,14.80
2018-10-16T14:55:34.223Z,15.30
2018-10-16T14:56:34.244Z,13.60
2018-10-16T14:57:34.318Z,13.90
2018-10-16T14:58:34.223Z,14.10
2018-10-16T14:59:34.198Z,13.50
2018-10-16T15:00:35.574Z,13.90
2018-10-16T15:01:34.185Z,14.40
2018-10-16T15:02:34.168Z,14.20
2018-10-16T15:03:34.147Z,14.50
2018-10-16T15:04:34.152Z,15.20
2018-10-16T15:05:34.132Z,14.40
2018-10-16T15:06:34.134Z,14.80
2018-10-16T15:07:34.122Z,14.90
2018-10-16T15:08:34.093Z,14.80
2018-10-16T15:09:34.121Z,15.40
2018-10-16T15:10:34.133Z,14.70
2018-10-16T15:11:34.049Z,14.40
2018-10-16T15:12:34.058Z,14.50
2018-10-16T15:13:34.050Z,14.50
2018-10-16T15:14:34.038Z,15.00
2018-10-16T15:15:34.033Z,14.80
2018-10-16T15:16:34.042Z,13.70
2018-10-16T15:17:33.983Z,14.30
2018-10-16T15:18:33.997Z,14.20
2018-10-16T15:19:33.969Z,13.80
2018-10-16T15:20:34.008Z,14.20
2018-10-16T15:21:33.951Z,13.60
2018-10-16T15:22:33.930Z,13.90
2018-10-16T15:23:33.931Z,14.20
2018-10-16T15:24:33.903Z,13.10
2018-10-16T15:25:33.918Z,13.30
2018-10-16T15:26:33.889Z,13.60
2018-10-16T15:27:33.870Z,13.60
2018-10-16T15:28:33.846Z,13.10
2018-10-16T15:29:33.839Z,13.40
2018-10-16T15:30:33.896Z,13.40
2018-10-16T15:31:33.821Z,13.30
2018-10-16T15:32:33.837Z,12.60
2018-10-16T15:33:33.852Z,12.70
2018-10-16T15:34:33.790Z,12.70
2018-10-16T15:35:33.946Z,12.70
2018-10-16T15:36:33.818Z,13.50
2018-10-16T15:37:33.777Z,13.00
2018-10-16T15:38:33.760Z,12.50
2018-10-16T15:39:33.902Z,12.00
2018-10-16T15:40:33.751Z,11.70
2018-10-16T15:41:33.750Z,12.10
2018-10-16T15:42:33.723Z,11.60
2018-10-16T15:43:33.696Z,12.80
2018-10-16T15:44:33.678Z,12.40
2018-10-16T15:45:33.686Z,12.10
2018-10-16T15:46:33.677Z,11.90
2018-10-16T15:47:33.646Z,11.70
2018-10-16T15:48:33.644Z,12.30
2018-10-16T15:49:33.625Z,12.10
2018-10-16T15:50:33.694Z,11.40
2018-10-16T15:51:33.611Z,11.30
2018-10-16T15:52:33.583Z,11.30
2018-10-16T15:53:33.572Z,11.80
2018-10-16T15:54:33.602Z,12.00
2018-10-16T15:55:33.586Z,11.30
2018-10-16T15:56:33.576Z,11.80
2018-10-16T15:57:33.594Z,11.40
2018-10-16T15:58:33.576Z,11.40
2018-10-16T15:59:33.537Z,11.20
2018-10-16T16:00:33.541Z,11.30
2018-10-16T16:01:33.506Z,11.50
2018-10-16T16:02:33.723Z,11.30
2018-10-16T16:03:33.480Z,12.00
2018-10-16T16:04:33.460Z,11.40
2018-10-16T16:05:33.474Z,11.40
2018-10-16T16:06:33.444Z,11.80
2018-10-16T16:07:33.427Z,11.80
2018-10-16T16:08:33.423Z,11.10
2018-10-16T16:09:33.409Z,11.20
2018-10-16T16:10:33.419Z,12.30
2018-10-16T16:11:33.382Z,11.50
2018-10-16T16:12:33.386Z,10.60
2018-10-16T16:13:33.362Z,11.40
2018-10-16T16:15:42.634Z,10.70
2018-10-16T16:16:43.542Z,11.50
2018-10-16T16:17:43.575Z,12.70
2018-10-16T16:18:43.517Z,12.60
2018-10-16T16:19:43.505Z,11.60
2018-10-16T16:20:43.567Z,12.30
2018-10-16T16:21:43.509Z,12.40
2018-10-16T16:22:43.459Z,11.80
2018-10-16T16:23:43.462Z,11.30
2018-10-16T16:24:43.458Z,11.00
2018-10-16T16:25:43.520Z,11.60
2018-10-16T16:26:43.447Z,10.90
2018-10-16T16:27:43.418Z,11.50
2018-10-16T16:28:43.458Z,11.50
2018-10-16T16:29:43.405Z,11.80
2018-10-16T16:30:43.394Z,11.20
2018-10-16T16:31:43.486Z,12.00
2018-10-16T16:32:43.382Z,11.30
2018-10-16T16:33:43.347Z,11.20
2018-10-16T16:34:43.347Z,11.90
2018-10-16T16:35:43.343Z,11.70
2018-10-16T16:36:43.418Z,11.70
2018-10-16T16:37:43.313Z,11.60
2018-10-16T16:38:43.297Z,11.80
2018-10-16T16:39:43.279Z,12.00
2018-10-16T16:40:43.280Z,11.80
2018-10-16T16:41:43.264Z,11.30
2018-10-16T16:42:43.249Z,12.30
2018-10-16T16:43:43.325Z,11.40
2018-10-16T16:44:43.225Z,11.50
2018-10-16T16:45:43.229Z,12.30
2018-10-16T16:46:43.207Z,11.60
2018-10-16T16:47:43.216Z,11.50
2018-10-16T16:48:43.178Z,11.30
2018-10-16T16:49:43.169Z,11.60
2018-10-16T16:50:43.184Z,12.10
2018-10-16T16:51:43.147Z,12.00
2018-10-16T16:52:43.142Z,11.70
2018-10-16T16:53:43.120Z,11.70
2018-10-16T16:54:43.121Z,11.30
2018-10-16T16:55:43.128Z,11.40
2018-10-16T16:56:43.146Z,11.20
2018-10-16T16:57:43.097Z,11.10
2018-10-16T16:58:43.069Z,10.90
2018-10-16T16:59:43.063Z,11.20
2018-10-16T17:00:43.071Z,11.80
2018-10-16T17:01:43.070Z,10.90
2018-10-16T17:02:43.039Z,12.00
2018-10-16T17:03:43.022Z,11.40
2018-10-16T17:04:43.025Z,11.50
2018-10-16T17:05:43.018Z,11.20
2018-10-16T17:06:42.983Z,11.10
2018-10-16T17:07:42.986Z,11.60
2018-10-16T17:08:42.963Z,12.00
2018-10-16T17:09:42.943Z,13.20
2018-10-16T17:10:42.941Z,13.50
2018-10-16T17:11:42.980Z,12.10
2018-10-16T17:12:42.927Z,12.80
2018-10-16T17:13:42.901Z,12.50
2018-10-16T17:14:42.888Z,11.90
2018-10-16T17:15:42.879Z,11.00
2018-10-16T17:16:42.902Z,12.00
2018-10-16T17:17:42.933Z,12.20
2018-10-16T17:18:42.883Z,13.00
2018-10-16T17:19:42.868Z,12.90
2018-10-16T17:20:42.833Z,13.00
2018-10-16T17:21:42.875Z,13.00
2018-10-16T17:22:42.806Z,13.60
2018-10-16T17:23:42.827Z,14.80
2018-10-16T17:24:42.902Z,12.60
2018-10-16T17:25:43.041Z,13.10
2018-10-16T17:26:42.852Z,12.40
2018-10-16T17:27:42.754Z,11.90
2018-10-16T17:28:42.731Z,12.60
2018-10-16T17:29:42.722Z,12.10
2018-10-16T17:30:42.709Z,12.70
2018-10-16T17:31:42.719Z,12.90
2018-10-16T17:32:42.690Z,12.50
2018-10-16T17:33:42.676Z,12.90
2018-10-16T17:34:42.677Z,12.20
2018-10-16T17:35:42.653Z,12.80
2018-10-16T17:36:42.662Z,13.30
2018-10-16T17:37:42.655Z,13.20
2018-10-16T17:38:42.661Z,13.60
2018-10-16T17:39:42.620Z,13.20
2018-10-16T17:40:42.652Z,12.80
2018-10-16T17:41:42.615Z,12.90
2018-10-16T17:42:42.645Z,12.30
2018-10-16T17:43:42.588Z,11.70
2018-10-16T17:44:42.553Z,11.70
2018-10-16T17:45:42.554Z,12.70
2018-10-16T17:46:42.584Z,12.00
2018-10-16T17:47:42.621Z,11.30
2018-10-16T17:48:42.527Z,13.00
2018-10-16T17:49:43.344Z,12.00
2018-10-16T17:50:42.496Z,11.80
2018-10-16T17:51:42.504Z,13.20
2018-10-16T17:52:42.468Z,12.60
2018-10-16T17:53:42.462Z,12.40
2018-10-16T17:54:42.452Z,13.30
2018-10-16T17:55:42.435Z,12.30
2018-10-16T17:56:42.442Z,12.00
2018-10-16T17:57:42.490Z,12.40
2018-10-16T17:58:42.403Z,13.10
2018-10-16T17:59:42.392Z,12.20
2018-10-16T18:00:42.389Z,10.50
2018-10-16T18:01:42.381Z,10.50
2018-10-16T18:02:42.357Z,11.70
2018-10-16T18:03:42.341Z,11.90
2018-10-16T18:04:42.424Z,11.30
2018-10-16T18:05:42.332Z,11.50
2018-10-16T18:06:42.325Z,11.40
2018-10-16T18:07:42.311Z,10.70
2018-10-16T18:08:42.311Z,10.80
2018-10-16T18:09:42.305Z,9.90
2018-10-16T18:10:42.297Z,10.60
2018-10-16T18:11:42.310Z,10.50
2018-10-16T18:12:42.260Z,10.60
2018-10-16T18:13:42.267Z,10.30
2018-10-16T18:14:42.226Z,10.50
2018-10-16T18:17:02.425Z,9.20
2018-10-16T18:18:03.340Z,11.10
2018-10-16T18:19:03.335Z,11.10
2018-10-16T18:20:03.311Z,10.80
2018-10-16T18:21:03.358Z,10.80
2018-10-16T18:22:03.342Z,10.70
2018-10-16T18:23:03.325Z,11.20
2018-10-16T18:24:03.279Z,11.10
2018-10-16T18:25:03.264Z,11.00
2018-10-16T18:26:03.273Z,10.40
2018-10-16T18:27:03.329Z,10.90
2018-10-16T18:28:03.245Z,10.90
2018-10-16T18:29:03.202Z,10.60
2018-10-16T18:30:03.237Z,11.30
2018-10-16T18:31:03.183Z,10.80
2018-10-16T18:32:03.199Z,11.30
2018-10-16T18:33:03.175Z,11.40
2018-10-16T18:34:03.143Z,10.80
2018-10-16T18:35:03.133Z,11.50
2018-10-16T18:36:03.132Z,11.60
2018-10-16T18:37:03.129Z,11.30
2018-10-16T18:38:03.102Z,12.00
2018-10-16T18:39:03.161Z,12.20
2018-10-16T18:40:03.218Z,11.90
2018-10-16T18:41:03.120Z,12.00
2018-10-16T18:42:03.094Z,12.40
2018-10-16T18:43:03.079Z,12.00
2018-10-16T18:44:03.080Z,12.30
2018-10-16T18:45:03.074Z,11.80
2018-10-16T18:46:03.026Z,12.00
2018-10-16T18:47:03.041Z,11.20
2018-10-16T18:48:03.032Z,11.30
2018-10-16T18:49:02.986Z,11.80
2018-10-16T18:50:02.989Z,12.90
2018-10-16T18:51:03.087Z,12.70
2018-10-16T18:52:02.952Z,12.90
2018-10-16T18:53:03.018Z,12.00
2018-10-16T18:54:02.980Z,11.80
2018-10-16T18:55:02.928Z,12.00
2018-10-16T18:56:02.914Z,11.70
2018-10-16T18:57:02.947Z,11.50
2018-10-16T18:58:02.925Z,11.70
2018-10-16T18:59:02.914Z,12.10
2018-10-16T19:00:02.937Z,11.80
2018-10-16T19:01:02.854Z,12.10
2018-10-16T19:02:02.902Z,12.30
2018-10-16T19:03:02.932Z,13.00
2018-10-16T19:04:02.854Z,12.90
2018-10-16T19:05:02.818Z,13.20
2018-10-16T19:06:03.090Z,12.30
2018-10-16T19:07:02.815Z,13.00
2018-10-16T19:08:02.966Z,12.50
2018-10-16T19:09:02.808Z,12.70
2018-10-16T19:10:02.753Z,12.30
2018-10-16T19:11:02.732Z,13.60
2018-10-16T19:12:02.734Z,12.40
2018-10-16T19:13:02.737Z,13.00
2018-10-16T19:14:02.791Z,12.30
2018-10-16T19:15:02.722Z,12.50
2018-10-16T19:16:02.688Z,12.20
2018-10-16T19:17:02.678Z,12.30
2018-10-16T19:18:02.681Z,12.30
2018-10-16T19:19:02.651Z,12.40
2018-10-16T19:20:02.669Z,12.20
2018-10-16T19:21:02.671Z,12.70
2018-10-16T19:22:02.633Z,12.90
2018-10-16T19:23:02.644Z,13.30
2018-10-16T19:24:02.630Z,13.50
2018-10-16T19:25:02.642Z,13.40
2018-10-16T19:26:02.599Z,13.50
2018-10-16T19:27:02.617Z,13.00
2018-10-16T19:28:02.553Z,13.00
2018-10-16T19:29:02.715Z,13.30
2018-10-16T19:30:02.587Z,12.10
2018-10-16T19:31:02.514Z,12.60
2018-10-16T19:32:02.515Z,12.10
2018-10-16T19:33:02.604Z,12.40
2018-10-16T19:34:02.485Z,12.60
2018-10-16T19:35:02.476Z,12.10
2018-10-16T19:36:02.468Z,12.30
2018-10-16T19:37:02.466Z,12.90
2018-10-16T19:38:02.464Z,12.60
2018-10-16T19:39:02.514Z,13.70
2018-10-16T19:40:02.415Z,13.00
2018-10-16T19:41:02.415Z,12.40
2018-10-16T19:42:02.430Z,12.70
2018-10-16T19:43:02.408Z,13.00
2018-10-16T19:44:02.411Z,12.90
2018-10-16T19:45:02.396Z,12.90
2018-10-16T19:46:02.365Z,13.20
2018-10-16T19:47:02.361Z,13.50
2018-10-16T19:48:02.358Z,12.70
2018-10-16T19:49:02.337Z,12.60
2018-10-16T19:50:02.349Z,13.50
2018-10-16T19:51:02.351Z,14.30
2018-10-16T19:52:02.288Z,13.90
2018-10-16T19:53:02.295Z,13.60
2018-10-16T19:54:02.275Z,14.00
2018-10-16T19:55:02.249Z,13.60
2018-10-16T19:56:02.245Z,13.70
2018-10-16T19:57:02.259Z,13.60
2018-10-16T19:58:02.233Z,14.90
2018-10-16T19:59:02.228Z,14.30
2018-10-16T20:00:02.244Z,14.50
2018-10-16T20:01:02.192Z,14.20
2018-10-16T20:02:02.241Z,13.90
2018-10-16T20:03:02.223Z,13.70
2018-10-16T20:04:02.165Z,13.20
2018-10-16T20:05:02.210Z,13.80
2018-10-16T20:06:02.158Z,13.00
2018-10-16T20:07:02.191Z,13.50
2018-10-16T20:08:02.130Z,13.10
2018-10-16T20:09:02.148Z,13.90
2018-10-16T20:10:02.089Z,13.90
2018-10-16T20:11:02.128Z,13.40
2018-10-16T20:12:02.101Z,14.60
2018-10-16T20:13:02.056Z,14.50
2018-10-16T20:14:02.165Z,13.70
2018-10-16T20:15:02.064Z,13.70
2018-10-16T20:16:02.017Z,13.90
2018-10-16T20:18:11.272Z,12.30
2018-10-16T20:19:12.279Z,12.40
2018-10-16T20:20:12.179Z,13.70
2018-10-16T20:21:12.202Z,13.80
2018-10-16T20:22:12.211Z,13.90
2018-10-16T20:23:12.157Z,13.90
2018-10-16T20:24:12.198Z,14.20
2018-10-16T20:25:12.228Z,14.00
2018-10-16T20:26:12.167Z,14.20
2018-10-16T20:27:12.111Z,13.50
2018-10-16T20:28:12.092Z,14.50
2018-10-16T20:29:12.101Z,13.30
2018-10-16T20:30:12.087Z,14.70
2018-10-16T20:31:12.207Z,14.30
2018-10-16T20:32:12.060Z,13.10
2018-10-16T20:33:12.082Z,14.80
2018-10-16T20:34:12.085Z,14.70
2018-10-16T20:35:12.083Z,14.00
2018-10-16T20:36:12.048Z,14.80
2018-10-16T20:37:12.174Z,14.60
2018-10-16T20:38:12.021Z,14.80
2018-10-16T20:39:12.012Z,14.90
2018-10-16T20:40:12.054Z,14.90
2018-10-16T20:41:11.966Z,15.60
2018-10-16T20:42:12.100Z,14.40
2018-10-16T20:43:12.029Z,15.70
2018-10-16T20:44:11.953Z,15.20
2018-10-16T20:45:11.974Z,15.10
2018-10-16T20:46:11.968Z,15.30
2018-10-16T20:47:11.902Z,15.40
2018-10-16T20:48:11.903Z,15.50
2018-10-16T20:49:11.977Z,15.70
2018-10-16T20:50:11.885Z,15.30
2018-10-16T20:51:11.852Z,15.00
2018-10-16T20:52:11.853Z,16.10
2018-10-16T20:53:12.036Z,16.90
2018-10-16T20:54:11.856Z,15.90
2018-10-16T20:55:11.905Z,16.00
2018-10-16T20:56:11.812Z,16.10
2018-10-16T20:57:11.832Z,16.00
2018-10-16T20:58:11.811Z,16.50
2018-10-16T20:59:11.768Z,15.90
2018-10-16T21:00:11.780Z,16.00
2018-10-16T21:01:11.837Z,16.30
2018-10-16T21:02:11.796Z,15.70
2018-10-16T21:03:11.915Z,15.50
2018-10-16T21:04:11.722Z,15.80
2018-10-16T21:05:11.898Z,15.80
2018-10-16T21:06:11.987Z,16.00
2018-10-16T21:07:11.782Z,15.80
2018-10-16T21:08:11.694Z,15.70
2018-10-16T21:09:11.696Z,16.90
2018-10-16T21:10:11.698Z,15.00
2018-10-16T21:11:11.720Z,16.40
2018-10-16T21:12:11.684Z,16.40
2018-10-16T21:13:11.779Z,15.40
2018-10-16T21:14:11.619Z,17.00
2018-10-16T21:15:11.623Z,16.80
2018-10-16T21:16:12.013Z,16.90
2018-10-16T21:17:11.574Z,16.50
2018-10-16T21:18:11.560Z,16.40
2018-10-16T21:19:11.653Z,16.40
2018-10-16T21:20:11.562Z,16.70
2018-10-16T21:21:11.570Z,16.70
2018-10-16T21:22:11.526Z,16.30
2018-10-16T21:23:11.635Z,15.90
2018-10-16T21:24:11.506Z,16.90
2018-10-16T21:25:11.583Z,17.20
2018-10-16T21:26:11.500Z,16.30
2018-10-16T21:27:11.476Z,16.50
2018-10-16T21:28:11.443Z,16.10
2018-10-16T21:29:11.503Z,16.20
2018-10-16T21:30:11.445Z,17.00
2018-10-16T21:31:11.466Z,16.40
2018-10-16T21:32:11.419Z,16.30
2018-10-16T21:33:11.410Z,16.40
2018-10-16T21:34:11.397Z,16.50
2018-10-16T21:35:11.515Z,16.40
2018-10-16T21:36:11.383Z,16.70
2018-10-16T21:37:11.465Z,15.80
2018-10-16T21:38:11.329Z,16.90
2018-10-16T21:39:11.398Z,16.70
2018-10-16T21:40:11.346Z,16.70
2018-10-16T21:41:11.352Z,16.70
2018-10-16T21:42:11.281Z,17.00
2018-10-16T21:43:11.356Z,16.70
2018-10-16T21:44:11.268Z,16.90
2018-10-16T21:45:11.279Z,17.20
2018-10-16T21:46:11.277Z,16.90
2018-10-16T21:47:11.358Z,16.90
2018-10-16T21:48:11.257Z,16.50
2018-10-16T21:49:11.256Z,17.30
2018-10-16T21:50:11.232Z,17.40
2018-10-16T21:51:11.230Z,17.00
2018-10-16T21:52:11.188Z,17.30
2018-10-16T21:53:11.286Z,17.00
2018-10-16T21:54:11.195Z,16.20
2018-10-16T21:55:11.355Z,17.50
2018-10-16T21:56:11.210Z,17.40
2018-10-16T21:57:11.121Z,17.10
2018-10-16T21:58:11.155Z,17.60
2018-10-16T21:59:11.282Z,17.20
2018-10-16T22:00:11.106Z,17.00
2018-10-16T22:01:11.221Z,18.00
2018-10-16T22:02:11.075Z,17.80
2018-10-16T22:03:11.096Z,17.80
2018-10-16T22:04:11.046Z,17.70
2018-10-16T22:05:11.106Z,17.60
2018-10-16T22:06:11.068Z,17.40
2018-10-16T22:07:11.093Z,18.20
2018-10-16T22:08:11.124Z,17.90
2018-10-16T22:09:11.044Z,18.10
2018-10-16T22:10:11.005Z,18.10
2018-10-16T22:11:11.020Z,18.40
2018-10-16T22:12:10.967Z,19.40
2018-10-16T22:13:11.022Z,18.10
2018-10-16T22:14:10.961Z,18.80
2018-10-16T22:15:10.974Z,18.90
2018-10-16T22:16:10.948Z,19.00
2018-10-16T22:17:10.961Z,18.80
2018-10-16T22:19:20.096Z,18.30
2018-10-16T22:20:21.133Z,18.90
2018-10-16T22:21:21.088Z,18.80
2018-10-16T22:22:21.070Z,18.60
2018-10-16T22:23:21.082Z,19.30
2018-10-16T22:24:21.048Z,19.00
2018-10-16T22:25:21.022Z,19.30
2018-10-16T22:26:21.096Z,18.00
2018-10-16T22:27:21.013Z,19.30
2018-10-16T22:28:20.996Z,19.10
2018-10-16T22:29:21.024Z,19.00
2018-10-16T22:30:20.985Z,19.40
2018-10-16T22:31:20.989Z,19.80
2018-10-16T22:32:20.966Z,19.30
2018-10-16T22:33:20.946Z,18.90
2018-10-16T22:34:20.953Z,18.20
2018-10-16T22:35:20.920Z,19.90
2018-10-16T22:36:20.933Z,18.50
2018-10-16T22:37:20.897Z,18.50
2018-10-16T22:38:20.889Z,19.90
2018-10-16T22:39:20.866Z,20.00
2018-10-16T22:40:20.868Z,19.30
2018-10-16T22:41:20.872Z,18.90
2018-10-16T22:42:20.838Z,19.30
2018-10-16T22:43:20.829Z,19.30
2018-10-16T22:44:20.819Z,19.30
2018-10-16T22:45:20.823Z,18.30
2018-10-16T22:46:20.824Z,18.90
2018-10-16T22:47:20.789Z,19.30
2018-10-16T22:48:20.788Z,19.60
2018-10-16T22:49:20.811Z,19.20
2018-10-16T22:50:20.786Z,19.30
2018-10-16T22:51:20.769Z,20.10
2018-10-16T22:52:20.734Z,19.90
2018-10-16T22:53:20.729Z,19.90
2018-10-16T22:54:20.742Z,20.20
2018-10-16T22:55:20.733Z,19.20
2018-10-16T22:56:20.718Z,20.20
2018-10-16T22:57:20.688Z,20.20
2018-10-16T22:58:20.673Z,20.70
2018-10-16T22:59:20.660Z,19.40
2018-10-16T23:00:20.644Z,20.00
2018-10-16T23:01:20.654Z,20.00
2018-10-16T23:02:20.636Z,20.70
2018-10-16T23:03:21.332Z,20.50
2018-10-16T23:04:20.599Z,19.70
2018-10-16T23:05:20.590Z,19.60
2018-10-16T23:06:20.596Z,21.00
2018-10-16T23:07:20.590Z,20.40
2018-10-16T23:08:20.564Z,21.00
2018-10-16T23:09:20.543Z,21.20
2018-10-16T23:10:20.547Z,20.70
2018-10-16T23:11:20.662Z,20.90
2018-10-16T23:12:20.562Z,20.80
2018-10-16T23:13:20.521Z,20.40
2018-10-16T23:14:20.497Z,20.30
2018-10-16T23:15:20.476Z,20.60
2018-10-16T23:16:20.490Z,22.00
2018-10-16T23:17:20.461Z,20.80
2018-10-16T23:18:20.448Z,21.70
2018-10-16T23:19:20.445Z,21.00
2018-10-16T23:20:20.463Z,20.80
2018-10-16T23:21:20.440Z,21.10
2018-10-16T23:22:20.403Z,20.90
2018-10-16T23:23:20.424Z,21.40
2018-10-16T23:24:20.384Z,21.90
2018-10-16T23:25:20.437Z,21.90
2018-10-16T23:26:20.376Z,22.00
2018-10-16T23:27:20.377Z,21.90
2018-10-16T23:28:20.347Z,21.10
2018-10-16T23:29:20.322Z,21.20
2018-10-16T23:30:20.316Z,21.80
2018-10-16T23:31:20.329Z,20.40
2018-10-16T23:32:20.332Z,21.60
2018-10-16T23:33:20.293Z,20.90
2018-10-16T23:34:20.309Z,20.30
2018-10-16T23:35:20.279Z,21.10
2018-10-16T23:36:20.267Z,20.80
2018-10-16T23:37:20.292Z,20.70
2018-10-16T23:38:20.277Z,21.20
2018-10-16T23:39:20.218Z,21.90
2018-10-16T23:40:20.213Z,21.40
2018-10-16T23:41:20.222Z,21.60
2018-10-16T23:42:20.213Z,21.80
2018-10-16T23:43:20.366Z,21.60
2018-10-16T23:44:20.164Z,21.90
2018-10-16T23:45:20.178Z,20.30
2018-10-16T23:46:20.144Z,20.00
2018-10-16T23:47:20.140Z,20.40
2018-10-16T23:48:20.115Z,20.70
2018-10-16T23:49:20.111Z,20.80
2018-10-16T23:50:20.085Z,20.60
2018-10-16T23:51:20.078Z,20.50
2018-10-16T23:52:20.093Z,19.70
2018-10-16T23:53:20.068Z,20.70
2018-10-16T23:54:20.051Z,21.00
2018-10-16T23:55:20.032Z,21.00
2018-10-16T23:56:20.032Z,20.70
2018-10-16T23:57:20.015Z,21.30
2018-10-16T23:58:20.005Z,21.00
2018-10-16T23:59:20.012Z,21.40
